Time;durP1;ratioP1;P1;durP2;ratioP2;P2;SDS_P1;SDS_P2;PMS_P1;PMS_P2;Temp;Humidity;BMP_temperature;BMP_pressure;BME280_temperature;BME280_humidity;BME280_pressure;Samples;Min_cycle;Max_cycle;Signal;HPM_P1;HPM_P2
2023/12/12 00:01:53;;;;;;;0.30;0.20;;;;;;;11.26;89.76;99646.16;5063529;28;20639;-58
2023/12/12 00:04:20;;;;;;;0.30;0.20;;;;;;;11.12;89.80;99648.53;5056084;28;20523;-57
2023/12/12 00:06:46;;;;;;;0.30;0.20;;;;;;;11.02;90.08;99658.69;5066347;28;20522;-58
2023/12/12 00:09:13;;;;;;;0.30;0.20;;;;;;;11.14;89.90;99657.31;5054774;28;20458;-58
2023/12/12 00:11:39;;;;;;;0.30;0.20;;;;;;;11.07;89.49;99651.38;5054497;28;20525;-58
2023/12/12 00:14:06;;;;;;;0.30;0.20;;;;;;;11.16;89.82;99643.03;5054354;28;20987;-58
2023/12/12 00:16:32;;;;;;;0.30;0.20;;;;;;;11.09;89.88;99640.66;5054222;28;20447;-58
2023/12/12 00:18:59;;;;;;;0.30;0.20;;;;;;;11.01;89.60;99643.66;5054603;28;20458;-58
2023/12/12 00:21:25;;;;;;;0.30;0.20;;;;;;;11.07;89.13;99645.19;5054284;28;20870;-58
2023/12/12 00:23:52;;;;;;;0.30;0.20;;;;;;;11.00;89.55;99636.59;5054652;28;20457;-58
2023/12/12 00:26:18;;;;;;;0.30;0.20;;;;;;;10.89;89.69;99641.50;5054611;28;20612;-58
2023/12/12 00:28:45;;;;;;;0.30;0.20;;;;;;;10.90;89.86;99640.56;5054296;28;20450;-58
2023/12/12 00:31:11;;;;;;;0.30;0.20;;;;;;;10.97;88.43;99653.56;5054013;28;20486;-58
2023/12/12 00:33:38;;;;;;;0.30;0.20;;;;;;;10.71;88.89;99656.38;5054503;28;20501;-58
2023/12/12 00:36:06;;;;;;;0.30;0.20;;;;;;;10.45;89.59;99652.09;5054150;28;20475;-57
2023/12/12 00:38:32;;;;;;;0.30;0.20;;;;;;;10.34;90.10;99651.63;5061812;28;20551;-58
2023/12/12 00:40:59;;;;;;;0.30;0.20;;;;;;;10.09;90.68;99648.97;5066081;28;20445;-57
2023/12/12 00:43:25;;;;;;;0.30;0.20;;;;;;;9.93;91.46;99659.28;5073965;28;20529;-57
2023/12/12 00:45:52;;;;;;;0.30;0.20;;;;;;;9.62;91.58;99648.91;5074086;28;20429;-58
2023/12/12 00:48:18;;;;;;;0.30;0.20;;;;;;;9.68;92.56;99650.47;5074265;28;20537;-55
2023/12/12 00:50:45;;;;;;;0.30;0.20;;;;;;;9.84;92.11;99659.59;5059523;28;20488;-58
2023/12/12 00:53:12;;;;;;;0.30;0.20;;;;;;;9.88;92.33;99652.44;5074034;28;20534;-58
2023/12/12 00:55:38;;;;;;;0.30;0.20;;;;;;;9.70;93.34;99644.19;5073719;28;20537;-57
2023/12/12 00:58:05;;;;;;;0.30;0.20;;;;;;;9.68;93.58;99655.78;5064432;28;20507;-57
2023/12/12 01:00:31;;;;;;;0.30;0.20;;;;;;;9.73;94.02;99656.47;5055064;28;20470;-58
2023/12/12 01:02:58;;;;;;;0.30;0.20;;;;;;;9.76;94.71;99653.72;5073594;28;20446;-58
2023/12/12 01:05:25;;;;;;;0.30;0.20;;;;;;;10.00;94.07;99651.94;5073332;28;20473;-57
2023/12/12 01:07:51;;;;;;;0.30;0.20;;;;;;;10.07;93.86;99651.69;5068297;28;20450;-58
2023/12/12 01:10:18;;;;;;;0.30;0.20;;;;;;;10.17;93.61;99646.03;5073524;28;20553;-58
2023/12/12 01:12:44;;;;;;;0.30;0.20;;;;;;;10.08;93.53;99650.75;5063205;28;20489;-58
2023/12/12 01:15:11;;;;;;;0.30;0.20;;;;;;;10.10;93.60;99648.03;5073318;28;20876;-58
2023/12/12 01:17:38;;;;;;;0.30;0.20;;;;;;;10.08;93.34;99650.75;5073065;28;20486;-58
2023/12/12 01:20:07;;;;;;;0.30;0.20;;;;;;;10.06;92.87;99644.66;5073460;28;20454;-58
2023/12/12 01:22:34;;;;;;;0.30;0.20;;;;;;;10.19;92.71;99639.75;5073357;28;20981;-58
2023/12/12 01:25:00;;;;;;;0.30;0.20;;;;;;;9.99;93.57;99631.63;5072358;28;20473;-58
2023/12/12 01:27:27;;;;;;;0.30;0.20;;;;;;;9.93;93.37;99626.56;5053329;28;20442;-60
2023/12/12 01:29:55;;;;;;;0.30;0.20;;;;;;;9.66;93.06;99625.78;5067068;28;20541;-58
2023/12/12 01:32:21;;;;;;;0.30;0.20;;;;;;;9.33;93.81;99623.38;5073217;28;20446;-58
2023/12/12 01:34:48;;;;;;;0.30;0.20;;;;;;;9.08;94.19;99628.66;5072780;28;20446;-58
2023/12/12 01:37:15;;;;;;;0.30;0.20;;;;;;;8.91;94.38;99628.34;5072851;28;20486;-57
2023/12/12 01:39:41;;;;;;;0.30;0.20;;;;;;;8.91;93.87;99625.69;5058823;28;20458;-58
2023/12/12 01:42:07;;;;;;;0.30;0.20;;;;;;;8.77;94.95;99635.84;5073002;28;20466;-58
2023/12/12 01:44:34;;;;;;;0.30;0.20;;;;;;;8.53;95.40;99633.06;5072814;28;20431;-57
2023/12/12 01:47:00;;;;;;;0.30;0.20;;;;;;;8.60;95.66;99628.44;5072830;28;20461;-57
2023/12/12 01:49:27;;;;;;;0.30;0.20;;;;;;;8.56;95.40;99627.66;5072834;28;20450;-58
2023/12/12 01:51:55;;;;;;;0.30;0.20;;;;;;;8.60;96.07;99631.94;5072530;28;20550;-57
2023/12/12 01:54:22;;;;;;;0.30;0.20;;;;;;;8.32;95.71;99629.25;5058232;28;20458;-58
2023/12/12 01:56:51;;;;;;;0.30;0.20;;;;;;;8.29;96.44;99633.78;5071469;28;20457;-57
2023/12/12 01:59:20;;;;;;;0.30;0.20;;;;;;;8.41;96.30;99636.09;5066873;28;21020;-58
2023/12/12 02:01:49;;;;;;;0.30;0.20;;;;;;;8.36;96.50;99642.41;5070242;28;21009;-58
2023/12/12 02:04:16;;;;;;;0.30;0.20;;;;;;;7.65;97.83;99640.88;5072218;28;20499;-58
2023/12/12 02:06:44;;;;;;;0.30;0.20;;;;;;;7.96;99.29;99644.44;5065199;28;20466;-58
2023/12/12 02:09:11;;;;;;;0.30;0.20;;;;;;;7.85;99.76;99643.88;5065725;28;20960;-57
2023/12/12 02:11:37;;;;;;;0.30;0.20;;;;;;;7.89;99.55;99644.63;5065714;28;20466;-58
2023/12/12 02:14:04;;;;;;;0.30;0.20;;;;;;;7.78;98.02;99639.66;5052368;28;20455;-58
2023/12/12 02:16:30;;;;;;;0.30;0.20;;;;;;;7.75;97.56;99633.56;5052352;28;20520;-57
2023/12/12 02:18:57;;;;;;;0.30;0.20;;;;;;;7.94;97.44;99626.84;5052046;28;20943;-58
2023/12/12 02:21:24;;;;;;;0.30;0.20;;;;;;;7.84;97.14;99636.84;5051749;28;20492;-58
2023/12/12 02:23:51;;;;;;;0.30;0.20;;;;;;;7.81;97.09;99628.09;5051223;28;20455;-58
2023/12/12 02:26:17;;;;;;;0.30;0.20;;;;;;;7.70;97.45;99617.84;5052056;28;20450;-58
2023/12/12 02:28:45;;;;;;;0.30;0.20;;;;;;;7.46;96.82;99622.00;5052114;28;20451;-57
2023/12/12 02:31:12;;;;;;;0.30;0.20;;;;;;;7.58;97.25;99623.47;5051791;28;20467;-58
2023/12/12 02:33:39;;;;;;;0.30;0.20;;;;;;;7.57;97.91;99622.59;5051780;28;20462;-58
2023/12/12 02:36:06;;;;;;;0.30;0.20;;;;;;;7.50;97.02;99626.31;5051479;28;20454;-57
2023/12/12 02:38:32;;;;;;;0.30;0.20;;;;;;;7.38;97.69;99629.28;5051829;28;20486;-58
2023/12/12 02:40:59;;;;;;;0.30;0.20;;;;;;;7.48;96.47;99633.41;5051884;28;20481;-58
2023/12/12 02:43:27;;;;;;;0.30;0.20;;;;;;;7.23;98.17;99635.81;5051968;28;20450;-58
2023/12/12 02:45:54;;;;;;;0.30;0.20;;;;;;;7.23;96.84;99641.09;5051814;28;20458;-58
2023/12/12 02:48:20;;;;;;;0.30;0.20;;;;;;;6.90;97.18;99634.03;5051858;28;20490;-58
2023/12/12 02:50:47;;;;;;;0.30;0.20;;;;;;;7.11;97.93;99625.56;5051380;28;20536;-58
2023/12/12 02:53:13;;;;;;;0.30;0.20;;;;;;;7.17;98.35;99624.56;5051720;28;20537;-58
2023/12/12 02:55:40;;;;;;;0.30;0.20;;;;;;;7.23;97.88;99627.03;5051808;28;20533;-58
2023/12/12 02:58:06;;;;;;;0.30;0.20;;;;;;;6.78;97.17;99622.00;5050938;28;20521;-58
2023/12/12 03:00:33;;;;;;;0.30;0.20;;;;;;;6.93;97.12;99618.09;5051504;28;20474;-58
2023/12/12 03:02:59;;;;;;;0.30;0.20;;;;;;;6.91;97.20;99619.91;5051584;28;20817;-57
2023/12/12 03:05:26;;;;;;;0.30;0.20;;;;;;;6.78;96.40;99616.69;5064704;28;21021;-58
2023/12/12 03:07:52;;;;;;;0.30;0.20;;;;;;;6.83;97.08;99626.25;5062866;28;20461;-58
2023/12/12 03:10:19;;;;;;;0.30;0.20;;;;;;;6.75;97.44;99612.38;5064142;28;20501;-57
2023/12/12 03:12:45;;;;;;;0.30;0.20;;;;;;;6.71;97.05;99628.31;5060705;28;20446;-58
2023/12/12 03:15:12;;;;;;;0.30;0.20;;;;;;;6.50;97.52;99627.03;5071769;28;20478;-58
2023/12/12 03:17:38;;;;;;;0.30;0.20;;;;;;;6.44;97.89;99629.81;5071328;28;20485;-58
2023/12/12 03:20:06;;;;;;;0.30;0.20;;;;;;;6.50;98.17;99630.56;5071262;28;20462;-58
2023/12/12 03:22:32;;;;;;;0.30;0.20;;;;;;;6.61;97.37;99632.09;5071529;28;20449;-58
2023/12/12 03:25:00;;;;;;;0.30;0.20;;;;;;;6.30;96.78;99631.88;5067578;28;20580;-57
2023/12/12 03:27:28;;;;;;;0.30;0.20;;;;;;;6.35;97.42;99630.91;5054732;28;20478;-58
2023/12/12 03:29:55;;;;;;;0.30;0.20;;;;;;;6.26;96.93;99636.38;5068452;28;20446;-58
2023/12/12 03:32:21;;;;;;;0.30;0.20;;;;;;;6.41;98.43;99636.03;5071227;28;20529;-58
2023/12/12 03:34:48;;;;;;;0.30;0.20;;;;;;;6.46;98.85;99642.09;5072224;28;20454;-58
2023/12/12 03:37:16;;;;;;;0.30;0.20;;;;;;;6.79;98.67;99636.94;5065686;28;20474;-59
2023/12/12 03:39:42;;;;;;;0.30;0.20;;;;;;;6.71;98.56;99644.16;5067840;28;20820;-59
2023/12/12 03:42:09;;;;;;;0.30;0.20;;;;;;;6.69;99.12;99636.25;5066173;28;20935;-59
2023/12/12 03:44:35;;;;;;;0.30;0.20;;;;;;;6.74;100.00;99630.91;5066794;28;20450;-59
2023/12/12 03:47:02;;;;;;;0.30;0.20;;;;;;;6.98;100.00;99626.78;5074984;28;20935;-59
2023/12/12 03:49:28;;;;;;;0.30;0.20;;;;;;;7.05;99.56;99628.38;5075082;28;20469;-59
2023/12/12 03:51:55;;;;;;;0.30;0.20;;;;;;;6.97;99.64;99619.75;5075479;28;20492;-56
2023/12/12 03:54:21;;;;;;;0.30;0.20;;;;;;;7.09;99.32;99617.69;5070173;28;20454;-56
2023/12/12 03:56:48;;;;;;;0.30;0.20;;;;;;;7.12;99.93;99620.22;5056815;28;20455;-55
2023/12/12 03:59:14;;;;;;;0.30;0.20;;;;;;;7.08;99.89;99621.22;5071115;28;20495;-55
2023/12/12 04:01:46;;;;;;;0.30;0.20;;;;;;;7.06;100.00;99619.53;5073469;28;20853;-55
2023/12/12 04:04:13;;;;;;;0.30;0.20;;;;;;;7.01;100.00;99606.44;5074765;28;20541;-55
2023/12/12 04:06:44;;;;;;;0.30;0.20;;;;;;;7.21;100.00;99603.28;5074975;28;20822;-55
2023/12/12 04:09:11;;;;;;;0.30;0.20;;;;;;;7.19;100.00;99610.38;5060449;28;20898;-56
2023/12/12 04:11:37;;;;;;;0.30;0.20;;;;;;;7.00;100.00;99603.84;5061409;28;20467;-55
2023/12/12 04:14:04;;;;;;;0.30;0.20;;;;;;;7.22;100.00;99606.78;5061220;28;20493;-55
2023/12/12 04:16:30;;;;;;;0.30;0.20;;;;;;;7.26;100.00;99603.16;5075009;28;20488;-55
2023/12/12 04:18:57;;;;;;;0.30;0.20;;;;;;;7.24;99.92;99608.47;5054065;28;20489;-56
2023/12/12 04:21:23;;;;;;;0.30;0.20;;;;;;;7.17;100.00;99606.06;5054497;28;20497;-56
2023/12/12 04:23:50;;;;;;;0.30;0.20;;;;;;;7.21;100.00;99610.34;5054523;28;20537;-56
2023/12/12 04:26:17;;;;;;;0.30;0.20;;;;;;;7.37;99.45;99601.97;5054383;28;20454;-56
2023/12/12 04:28:43;;;;;;;0.30;0.20;;;;;;;7.42;100.00;99597.44;5054182;28;20530;-55
2023/12/12 04:31:16;;;;;;;0.30;0.20;;;;;;;7.54;100.00;99585.66;5054083;28;20477;-56
2023/12/12 04:33:43;;;;;;;0.30;0.20;;;;;;;7.49;100.00;99584.91;5054424;28;20451;-55
2023/12/12 04:36:14;;;;;;;0.30;0.20;;;;;;;7.32;100.00;99577.44;5054286;28;20447;-56
2023/12/12 04:38:41;;;;;;;0.30;0.20;;;;;;;7.56;100.00;99575.91;5054139;28;20541;-55
2023/12/12 04:41:08;;;;;;;0.30;0.20;;;;;;;7.48;100.00;99579.66;5053821;28;20566;-56
2023/12/12 04:43:35;;;;;;;0.30;0.20;;;;;;;7.48;100.00;99587.59;5053678;28;20447;-56
2023/12/12 04:46:01;;;;;;;0.30;0.20;;;;;;;7.37;99.58;99575.53;5053669;28;20462;-55
2023/12/12 04:48:28;;;;;;;0.30;0.20;;;;;;;7.50;100.00;99573.41;5053649;28;20801;-56
2023/12/12 04:50:55;;;;;;;0.30;0.20;;;;;;;7.37;99.54;99572.88;5053774;28;20478;-56
2023/12/12 04:53:21;;;;;;;0.30;0.20;;;;;;;7.31;99.60;99567.78;5057203;28;20447;-54
2023/12/12 04:55:47;;;;;;;0.30;0.20;;;;;;;7.49;100.00;99570.81;5058916;28;20450;-56
2023/12/12 04:58:14;;;;;;;0.30;0.20;;;;;;;7.63;100.00;99564.22;5070319;28;20850;-56
2023/12/12 05:00:40;;;;;;;0.30;0.20;;;;;;;7.39;100.00;99570.19;5073839;28;20481;-56
2023/12/12 05:03:07;;;;;;;0.30;0.20;;;;;;;7.41;100.00;99569.28;5073969;28;20449;-55
2023/12/12 05:05:33;;;;;;;0.30;0.20;;;;;;;7.38;100.00;99569.31;5073501;28;20446;-56
2023/12/12 05:08:00;;;;;;;0.30;0.20;;;;;;;7.36;100.00;99563.22;5063661;28;20447;-56
2023/12/12 05:10:27;;;;;;;0.30;0.20;;;;;;;7.41;100.00;99552.53;5066007;28;20854;-56
2023/12/12 05:12:54;;;;;;;0.30;0.20;;;;;;;7.48;100.00;99553.22;5064600;28;20462;-56
2023/12/12 05:15:20;;;;;;;0.30;0.20;;;;;;;7.42;100.00;99551.63;5066114;28;20454;-56
2023/12/12 05:17:47;;;;;;;0.30;0.20;;;;;;;7.42;100.00;99549.84;5056719;28;20533;-56
2023/12/12 05:20:14;;;;;;;0.30;0.20;;;;;;;7.33;100.00;99536.00;5058679;28;20494;-56
2023/12/12 05:22:41;;;;;;;0.30;0.20;;;;;;;7.36;100.00;99536.78;5062867;28;20828;-56
2023/12/12 05:25:07;;;;;;;0.30;0.20;;;;;;;7.46;100.00;99541.81;5067366;28;20481;-56
2023/12/12 05:27:34;;;;;;;0.30;0.20;;;;;;;7.38;100.00;99544.66;5056912;28;20458;-56
2023/12/12 05:30:00;;;;;;;0.30;0.20;;;;;;;7.39;100.00;99555.19;5068197;28;20445;-56
2023/12/12 05:32:27;;;;;;;0.30;0.20;;;;;;;7.34;100.00;99559.75;5071507;28;20893;-56
2023/12/12 05:34:55;;;;;;;0.30;0.20;;;;;;;7.41;100.00;99545.47;5058503;28;20454;-56
2023/12/12 05:37:22;;;;;;;0.30;0.20;;;;;;;7.52;100.00;99545.16;5072101;28;20461;-56
2023/12/12 05:39:49;;;;;;;0.30;0.20;;;;;;;7.40;100.00;99548.13;5060908;28;20506;-56
2023/12/12 05:42:16;;;;;;;0.30;0.20;;;;;;;7.38;100.00;99555.25;5064846;28;20532;-56
2023/12/12 05:44:42;;;;;;;0.30;0.20;;;;;;;7.30;100.00;99557.25;5073039;28;21026;-55
2023/12/12 05:47:09;;;;;;;0.30;0.20;;;;;;;7.40;100.00;99551.69;5072970;28;20773;-55
2023/12/12 05:49:35;;;;;;;0.33;0.20;;;;;;;7.42;100.00;99559.56;5072664;28;20808;-56
2023/12/12 05:52:04;;;;;;;0.30;0.20;;;;;;;7.34;100.00;99556.25;5072539;28;20473;-55
2023/12/12 05:54:30;;;;;;;0.30;0.20;;;;;;;7.52;100.00;99546.94;5072545;28;20825;-55
2023/12/12 05:56:57;;;;;;;0.30;0.20;;;;;;;7.66;100.00;99556.19;5070477;28;20450;-55
2023/12/12 05:59:23;;;;;;;0.30;0.20;;;;;;;7.57;100.00;99547.69;5071991;28;20591;-56
2023/12/12 06:01:49;;;;;;;0.30;0.20;;;;;;;7.55;100.00;99542.44;5072460;28;20480;-56
2023/12/12 06:04:16;;;;;;;0.30;0.20;;;;;;;7.52;100.00;99542.50;5072298;28;20448;-55
2023/12/12 06:06:43;;;;;;;0.30;0.20;;;;;;;7.49;100.00;99539.94;5072262;28;20442;-55
2023/12/12 06:09:10;;;;;;;0.30;0.20;;;;;;;7.51;100.00;99537.25;5059544;28;20457;-55
2023/12/12 06:11:37;;;;;;;0.30;0.20;;;;;;;7.38;100.00;99534.97;5062855;28;20573;-56
2023/12/12 06:14:05;;;;;;;0.30;0.20;;;;;;;7.29;100.00;99519.38;5059241;28;20961;-56
2023/12/12 06:16:32;;;;;;;0.30;0.20;;;;;;;7.24;100.00;99518.63;5065586;28;20450;-56
2023/12/12 06:18:59;;;;;;;0.30;0.20;;;;;;;6.98;100.00;99506.09;5059652;28;21014;-56
2023/12/12 06:21:26;;;;;;;0.30;0.20;;;;;;;6.86;100.00;99509.09;5071855;28;20478;-56
2023/12/12 06:23:52;;;;;;;0.30;0.20;;;;;;;6.79;100.00;99502.22;5072503;28;20561;-56
2023/12/12 06:26:19;;;;;;;0.30;0.20;;;;;;;6.74;100.00;99506.78;5071983;28;20481;-56
2023/12/12 06:28:45;;;;;;;0.30;0.20;;;;;;;6.61;100.00;99514.13;5061513;28;20533;-56
2023/12/12 06:31:11;;;;;;;0.30;0.20;;;;;;;6.43;100.00;99509.28;5072171;28;20827;-55
2023/12/12 06:33:38;;;;;;;0.30;0.20;;;;;;;6.42;100.00;99510.19;5072092;28;20853;-55
2023/12/12 06:36:06;;;;;;;0.30;0.20;;;;;;;6.18;99.94;99504.63;5071763;28;20445;-55
2023/12/12 06:38:32;;;;;;;0.40;0.30;;;;;;;6.07;100.00;99501.34;5071996;28;20503;-55
2023/12/12 06:40:58;;;;;;;0.30;0.20;;;;;;;6.00;100.00;99497.09;5071737;28;20914;-54
2023/12/12 06:43:25;;;;;;;0.30;0.20;;;;;;;5.89;100.00;99499.09;5072115;28;20450;-55
2023/12/12 06:45:51;;;;;;;0.30;0.20;;;;;;;5.57;100.00;99502.44;5071755;28;20935;-54
2023/12/12 06:48:18;;;;;;;0.30;0.20;;;;;;;5.90;100.00;99508.78;5071887;28;20450;-55
2023/12/12 06:50:44;;;;;;;0.30;0.20;;;;;;;5.95;100.00;99509.53;5071565;28;20477;-55
2023/12/12 06:53:11;;;;;;;0.30;0.30;;;;;;;5.70;100.00;99509.19;5072092;28;20446;-55
2023/12/12 06:55:38;;;;;;;0.30;0.20;;;;;;;5.71;100.00;99510.03;5071831;28;20446;-55
2023/12/12 06:58:04;;;;;;;0.30;0.20;;;;;;;5.59;100.00;99519.06;5067409;28;20493;-55
2023/12/12 07:00:33;;;;;;;0.30;0.20;;;;;;;5.57;100.00;99520.88;5071326;28;20490;-56
2023/12/12 07:02:59;;;;;;;0.30;0.20;;;;;;;5.47;100.00;99525.47;5071651;28;20457;-60
2023/12/12 07:05:26;;;;;;;0.30;0.20;;;;;;;5.57;100.00;99527.03;5071571;28;20947;-59
2023/12/12 07:07:53;;;;;;;0.30;0.20;;;;;;;5.62;100.00;99517.28;5062777;28;20451;-59
2023/12/12 07:10:20;;;;;;;0.30;0.20;;;;;;;5.47;100.00;99506.16;5067185;28;20496;-59
2023/12/12 07:12:47;;;;;;;0.30;0.20;;;;;;;5.73;100.00;99498.56;5071705;28;20943;-55
2023/12/12 07:15:13;;;;;;;4.00;3.80;;;;;;;5.70;100.00;99487.22;5071474;28;20453;-55
2023/12/12 07:17:40;;;;;;;0.30;0.20;;;;;;;5.94;100.00;99482.31;5071515;28;20461;-55
2023/12/12 07:20:09;;;;;;;0.30;0.20;;;;;;;6.13;100.00;99480.09;5071494;28;20604;-55
2023/12/12 07:22:36;;;;;;;0.30;0.20;;;;;;;6.14;100.00;99473.03;5071576;28;20442;-55
2023/12/12 07:25:03;;;;;;;0.30;0.20;;;;;;;5.91;100.00;99468.34;5071257;28;20969;-55
2023/12/12 07:27:30;;;;;;;0.30;0.20;;;;;;;5.98;100.00;99466.41;5064405;28;20451;-55
2023/12/12 07:29:57;;;;;;;0.30;0.20;;;;;;;6.17;100.00;99467.72;5069324;28;20963;-55
2023/12/12 07:32:26;;;;;;;0.30;0.20;;;;;;;6.49;100.00;99457.22;5071327;28;20446;-55
2023/12/12 07:34:54;;;;;;;0.30;0.20;;;;;;;6.58;100.00;99458.78;5071408;28;20507;-54
2023/12/12 07:37:20;;;;;;;0.30;0.20;;;;;;;6.49;100.00;99453.72;5071284;28;20947;-55
2023/12/12 07:39:47;;;;;;;0.30;0.20;;;;;;;6.69;100.00;99454.06;5071256;28;20490;-51
2023/12/12 07:42:13;;;;;;;0.30;0.20;;;;;;;6.55;100.00;99450.91;5071287;28;20950;-50
2023/12/12 07:44:40;;;;;;;0.30;0.20;;;;;;;6.92;100.00;99460.50;5071092;28;20536;-50
2023/12/12 07:47:07;;;;;;;0.30;0.10;;;;;;;7.11;100.00;99461.72;5071490;28;20485;-51
2023/12/12 07:49:33;;;;;;;0.30;0.20;;;;;;;7.19;100.00;99456.22;5071223;28;20442;-50
2023/12/12 07:52:00;;;;;;;0.30;0.20;;;;;;;7.14;100.00;99464.31;5071136;28;20561;-49
2023/12/12 07:54:27;;;;;;;0.30;0.20;;;;;;;7.43;100.00;99466.97;5071148;28;20473;-49
2023/12/12 07:56:54;;;;;;;0.30;0.20;;;;;;;7.50;100.00;99451.78;5069163;28;20871;-50
2023/12/12 07:59:20;;;;;;;0.30;0.20;;;;;;;7.40;100.00;99445.94;5070317;28;20567;-50
2023/12/12 08:01:47;;;;;;;0.30;0.20;;;;;;;7.54;100.00;99449.91;5071217;28;20527;-51
2023/12/12 08:04:14;;;;;;;0.30;0.20;;;;;;;7.55;100.00;99454.31;5070687;28;20450;-50
2023/12/12 08:06:41;;;;;;;0.30;0.20;;;;;;;7.53;100.00;99453.47;5070998;28;20942;-50
2023/12/12 08:09:07;;;;;;;0.30;0.20;;;;;;;7.23;100.00;99447.31;5057474;28;20456;-49
2023/12/12 08:11:33;;;;;;;0.30;0.20;;;;;;;7.50;100.00;99449.13;5070947;28;20517;-52
2023/12/12 08:14:00;;;;;;;0.30;0.20;;;;;;;7.65;100.00;99448.69;5070918;28;20996;-50
2023/12/12 08:16:27;;;;;;;0.30;0.20;;;;;;;7.81;100.00;99449.09;5071125;28;20450;-51
2023/12/12 08:18:54;;;;;;;0.30;0.20;;;;;;;7.75;100.00;99451.06;5070801;28;20458;-54
2023/12/12 08:21:20;;;;;;;0.30;0.20;;;;;;;7.90;100.00;99464.66;5070897;28;20466;-50
2023/12/12 08:23:48;;;;;;;0.30;0.20;;;;;;;8.22;100.00;99473.38;5074522;28;20787;-52
2023/12/12 08:26:15;;;;;;;0.30;0.20;;;;;;;7.94;100.00;99468.06;5074212;28;20560;-52
2023/12/12 08:28:41;;;;;;;0.30;0.20;;;;;;;8.30;100.00;99461.63;5064496;28;20966;-51
2023/12/12 08:31:08;;;;;;;0.30;0.20;;;;;;;8.08;100.00;99463.22;5074182;28;20473;-51
2023/12/12 08:33:35;;;;;;;0.30;0.20;;;;;;;8.08;100.00;99465.88;5074418;28;20533;-51
2023/12/12 08:36:03;;;;;;;0.30;0.20;;;;;;;8.08;100.00;99476.44;5074181;28;20954;-50
2023/12/12 08:38:30;;;;;;;0.30;0.20;;;;;;;8.18;100.00;99469.97;5074225;28;20898;-50
2023/12/12 08:40:56;;;;;;;0.30;0.20;;;;;;;8.09;100.00;99462.34;5074016;28;20565;-51
2023/12/12 08:43:23;;;;;;;0.40;0.40;;;;;;;8.01;100.00;99449.31;5074438;28;20474;-50
2023/12/12 08:45:54;;;;;;;0.30;0.20;;;;;;;8.04;100.00;99445.72;5073965;28;20511;-51
2023/12/12 08:48:23;;;;;;;0.30;0.20;;;;;;;8.06;100.00;99441.22;5074414;28;20453;-50
2023/12/12 08:50:50;;;;;;;0.30;0.20;;;;;;;8.14;100.00;99422.47;5073719;28;20898;-50
2023/12/12 08:53:17;;;;;;;0.30;0.20;;;;;;;8.15;100.00;99419.78;5074099;28;20450;-51
2023/12/12 08:55:45;;;;;;;0.30;0.20;;;;;;;8.26;100.00;99412.34;5073785;28;20461;-50
2023/12/12 08:58:11;;;;;;;0.30;0.20;;;;;;;8.42;100.00;99411.84;5071096;28;20499;-51
2023/12/12 09:00:38;;;;;;;0.30;0.20;;;;;;;8.56;100.00;99405.16;5073856;28;20494;-51
2023/12/12 09:03:05;;;;;;;0.30;0.20;;;;;;;8.52;100.00;99411.50;5074041;28;20545;-50
2023/12/12 09:05:31;;;;;;;0.30;0.20;;;;;;;8.57;100.00;99416.63;5073470;28;20818;-50
2023/12/12 09:07:58;;;;;;;0.30;0.20;;;;;;;8.53;100.00;99426.47;5063765;28;20527;-50
2023/12/12 09:10:24;;;;;;;0.30;0.20;;;;;;;8.37;100.00;99427.06;5070694;28;20530;-51
2023/12/12 09:12:51;;;;;;;0.30;0.20;;;;;;;8.32;100.00;99417.41;5073609;28;20499;-50
2023/12/12 09:15:17;;;;;;;0.30;0.20;;;;;;;8.24;100.00;99410.66;5073642;28;20449;-50
2023/12/12 09:17:44;;;;;;;0.30;0.20;;;;;;;8.41;100.00;99402.19;5073721;28;20449;-51
2023/12/12 09:20:30;;;;;;;0.30;0.20;;;;;;;8.61;100.00;99394.41;5073075;28;20482;-51
2023/12/12 09:22:57;;;;;;;0.30;0.20;;;;;;;8.50;100.00;99408.03;5073883;28;20452;-50
2023/12/12 09:25:25;;;;;;;0.30;0.20;;;;;;;8.66;100.00;99400.44;5073072;28;20446;-50
2023/12/12 09:27:52;;;;;;;0.30;0.20;;;;;;;8.71;100.00;99390.53;5063246;28;20935;-51
2023/12/12 09:30:18;;;;;;;0.30;0.20;;;;;;;9.01;100.00;99380.59;5064068;28;20463;-51
2023/12/12 09:32:45;;;;;;;0.30;0.20;;;;;;;9.19;100.00;99379.06;5066600;28;20493;-51
2023/12/12 09:35:11;;;;;;;0.30;0.20;;;;;;;9.31;100.00;99375.91;5063091;28;20461;-50
2023/12/12 09:37:38;;;;;;;0.30;0.20;;;;;;;9.56;99.72;99378.50;5056202;28;20621;-52
2023/12/12 09:40:05;;;;;;;0.30;0.20;;;;;;;9.71;99.58;99372.56;5062869;28;20852;-51
2023/12/12 09:42:34;;;;;;;0.30;0.20;;;;;;;9.74;98.47;99371.63;5066987;28;20450;-50
2023/12/12 09:45:07;;;;;;;0.30;0.20;;;;;;;9.81;98.34;99357.16;5072978;28;20957;-50
2023/12/12 09:47:34;;;;;;;0.30;0.20;;;;;;;9.63;98.13;99349.94;5072721;28;20441;-51
2023/12/12 09:50:01;;;;;;;0.30;0.20;;;;;;;9.18;99.99;99335.78;5063934;28;20497;-51
2023/12/12 09:52:35;;;;;;;0.30;0.20;;;;;;;9.42;98.78;99327.78;5057396;28;20462;-51
2023/12/12 09:55:03;;;;;;;0.30;0.20;;;;;;;9.68;98.73;99332.91;5060513;28;20454;-51
2023/12/12 09:57:30;;;;;;;0.30;0.20;;;;;;;9.59;98.77;99333.25;5068491;28;21030;-51
2023/12/12 09:59:58;;;;;;;0.30;0.20;;;;;;;9.54;99.00;99324.63;5055699;28;20552;-51
2023/12/12 10:02:33;;;;;;;0.30;0.20;;;;;;;9.83;98.51;99320.81;5069338;28;20536;-51
2023/12/12 10:05:05;;;;;;;0.30;0.20;;;;;;;9.86;98.16;99312.69;5064947;28;20501;-52
2023/12/12 10:07:33;;;;;;;0.30;0.20;;;;;;;9.85;98.81;99303.00;5052856;28;20461;-51
2023/12/12 10:10:04;;;;;;;0.30;0.20;;;;;;;10.09;97.87;99301.13;5065797;28;20450;-51
2023/12/12 10:12:31;;;;;;;0.30;0.20;;;;;;;10.21;97.01;99295.34;5072558;28;20465;-51
2023/12/12 10:14:58;;;;;;;0.30;0.20;;;;;;;10.06;97.87;99293.31;5059188;28;20455;-50
2023/12/12 10:17:26;;;;;;;0.30;0.20;;;;;;;10.00;98.27;99291.75;5067435;28;20955;-51
2023/12/12 10:20:03;;;;;;;0.30;0.20;;;;;;;9.91;99.33;99286.84;5070766;28;20883;-51
2023/12/12 10:22:31;;;;;;;0.30;0.20;;;;;;;9.94;99.42;99275.25;5071538;28;20595;-51
2023/12/12 10:25:11;;;;;;;0.30;0.20;;;;;;;9.72;100.00;99280.56;5059008;28;20505;-51
2023/12/12 10:27:42;;;;;;;0.30;0.20;;;;;;;9.56;100.00;99274.16;5065119;28;20450;-51
2023/12/12 10:30:13;;;;;;;4.13;3.90;;;;;;;9.88;100.00;99279.03;5061795;28;20477;-51
2023/12/12 10:32:40;;;;;;;0.30;0.20;;;;;;;9.91;100.00;99278.03;5072106;28;20459;-51
2023/12/12 10:35:07;;;;;;;0.30;0.20;;;;;;;10.14;100.00;99266.41;5062238;28;20453;-51
2023/12/12 10:37:34;;;;;;;0.30;0.20;;;;;;;9.48;100.00;99261.22;5071869;28;20782;-51
2023/12/12 10:40:30;;;;;;;0.30;0.20;;;;;;;9.58;100.00;99254.59;5071535;28;20490;-50
2023/12/12 10:42:57;;;;;;;0.30;0.20;;;;;;;9.49;100.00;99237.28;5047634;28;20458;-50
2023/12/12 10:45:26;;;;;;;0.30;0.20;;;;;;;9.62;100.00;99231.50;5071360;28;20454;-51
2023/12/12 10:47:56;;;;;;;0.30;0.20;;;;;;;9.90;100.00;99236.50;5061198;28;20881;-50
2023/12/12 10:50:26;;;;;;;0.30;0.20;;;;;;;9.92;100.00;99219.56;5068479;28;20469;-50
2023/12/12 10:52:53;;;;;;;0.30;0.20;;;;;;;9.86;100.00;99225.13;5059094;28;20548;-50
2023/12/12 10:55:21;;;;;;;0.30;0.20;;;;;;;9.99;100.00;99206.88;5071976;28;20445;-51
2023/12/12 10:57:48;;;;;;;0.30;0.20;;;;;;;9.81;100.00;99203.22;5068366;28;20450;-51
2023/12/12 11:00:16;;;;;;;0.30;0.20;;;;;;;9.93;100.00;99207.16;5064042;28;20539;-51
2023/12/12 11:02:46;;;;;;;0.30;0.20;;;;;;;10.09;100.00;99194.94;5051567;28;20469;-50
2023/12/12 11:05:14;;;;;;;0.30;0.20;;;;;;;10.26;100.00;99188.88;5061495;28;20553;-50
2023/12/12 11:07:46;;;;;;;0.30;0.20;;;;;;;10.14;100.00;99184.09;5070458;28;20977;-50
2023/12/12 11:10:14;;;;;;;0.30;0.20;;;;;;;10.14;100.00;99186.75;5058229;28;20458;-51
2023/12/12 11:12:48;;;;;;;0.30;0.20;;;;;;;10.34;100.00;99189.41;5062596;28;20512;-52
2023/12/12 11:15:17;;;;;;;0.30;0.20;;;;;;;10.19;100.00;99187.41;5067815;28;20501;-50
2023/12/12 11:17:43;;;;;;;0.30;0.20;;;;;;;10.18;100.00;99180.38;5071372;28;20472;-50
2023/12/12 11:20:12;;;;;;;0.30;0.20;;;;;;;10.20;100.00;99182.03;5071752;28;20508;-50
2023/12/12 11:22:45;;;;;;;1.27;1.17;;;;;;;10.33;100.00;99180.59;5071439;28;20978;-50
2023/12/12 11:25:22;;;;;;;0.30;0.20;;;;;;;10.15;100.00;99165.47;5071748;28;20446;-50
2023/12/12 11:27:51;;;;;;;0.30;0.20;;;;;;;9.89;100.00;99155.13;5062841;28;20852;-51
2023/12/12 11:30:18;;;;;;;0.30;0.20;;;;;;;9.75;100.00;99155.75;5071419;28;20465;-50
2023/12/12 11:32:46;;;;;;;0.30;0.20;;;;;;;9.65;100.00;99141.16;5070645;28;20507;-51
2023/12/12 11:35:29;;;;;;;0.30;0.20;;;;;;;9.62;100.00;99136.84;5058578;28;20565;-51
2023/12/12 11:38:17;;;;;;;0.30;0.20;;;;;;;10.02;100.00;99143.03;5071400;28;20469;-54